Time;durP1;ratioP1;P1;durP2;ratioP2;P2;SDS_P1;SDS_P2;PMS_P1;PMS_P2;Temp;Humidity;BMP_temperature;BMP_pressure;BME280_temperature;BME280_humidity;BME280_pressure;Samples;Min_cycle;Max_cycle;Signal;HPM_P1;HPM_P2
2023/12/02 00:01:11;;;;;;;38.40;24.20;;;;;;;2.42;68.27;97756.77;234415;215;140454;-58
2023/12/02 00:06:15;;;;;;;36.80;23.50;;;;;;;2.39;68.44;97774.45;234179;215;137418;-64
2023/12/02 00:11:18;;;;;;;39.00;23.60;;;;;;;2.39;68.58;97806.33;234552;215;148953;-66
2023/12/02 00:16:21;;;;;;;38.00;24.40;;;;;;;2.43;68.53;97835.86;234381;215;139112;-58
2023/12/02 00:21:24;;;;;;;40.40;25.10;;;;;;;2.50;68.52;97845.14;234315;215;136499;-62
2023/12/02 00:26:27;;;;;;;39.20;24.10;;;;;;;2.51;68.39;97845.63;234386;213;147605;-60
2023/12/02 00:31:31;;;;;;;41.20;24.80;;;;;;;2.52;68.35;97846.42;234303;215;140798;-63
2023/12/02 00:36:35;;;;;;;37.50;23.60;;;;;;;2.51;68.45;97835.98;234361;215;138101;-62
2023/12/02 00:41:38;;;;;;;37.60;24.60;;;;;;;2.48;68.43;97821.09;234493;215;148048;-63
2023/12/02 00:46:42;;;;;;;38.40;23.90;;;;;;;2.42;68.35;97803.69;234282;215;140096;-61
2023/12/02 00:51:45;;;;;;;36.50;23.10;;;;;;;2.41;68.51;97813.90;234409;211;138421;-61
2023/12/02 00:56:48;;;;;;;37.80;23.70;;;;;;;2.39;68.68;97789.30;234337;213;147712;-61
2023/12/02 01:01:51;;;;;;;36.80;23.70;;;;;;;2.37;68.73;97761.95;234347;215;139924;-62
2023/12/02 01:06:54;;;;;;;34.10;23.30;;;;;;;2.37;68.71;97778.39;234340;215;138325;-63
2023/12/02 01:11:57;;;;;;;36.30;22.40;;;;;;;2.35;68.92;97789.89;234397;215;148260;-65
2023/12/02 01:17:01;;;;;;;35.60;22.00;;;;;;;2.35;68.76;97799.48;234417;215;140732;-58
2023/12/02 01:22:04;;;;;;;35.40;20.80;;;;;;;2.30;68.85;97801.63;234398;215;138158;-58
2023/12/02 01:27:07;;;;;;;29.20;19.40;;;;;;;2.31;68.77;97809.11;234344;213;147612;-58
2023/12/02 01:32:10;;;;;;;30.00;19.30;;;;;;;2.31;68.82;97806.14;234294;215;138660;-57
2023/12/02 01:37:13;;;;;;;31.50;19.80;;;;;;;2.29;68.76;97812.91;234354;215;137986;-56
2023/12/02 01:42:16;;;;;;;28.90;17.70;;;;;;;2.31;68.79;97793.39;234240;215;148983;-58
2023/12/02 01:47:20;;;;;;;29.40;19.00;;;;;;;2.40;68.55;97784.21;234497;215;138600;-57
2023/12/02 01:52:23;;;;;;;33.80;20.40;;;;;;;2.43;68.53;97764.60;234311;213;137496;-57
2023/12/02 01:57:26;;;;;;;29.50;19.90;;;;;;;2.48;68.52;97753.70;234262;215;147652;-57
2023/12/02 02:02:29;;;;;;;30.70;19.40;;;;;;;2.50;68.38;97754.96;234183;211;139356;-58
2023/12/02 02:07:32;;;;;;;31.80;19.80;;;;;;;2.49;68.18;97775.85;234385;215;137730;-57
2023/12/02 02:12:35;;;;;;;28.80;19.10;;;;;;;2.45;68.23;97783.61;234332;215;148108;-56
2023/12/02 02:17:39;;;;;;;29.70;19.20;;;;;;;2.41;68.24;97785.34;234481;213;138390;-56
2023/12/02 02:22:42;;;;;;;29.30;19.20;;;;;;;2.38;68.28;97768.35;234301;215;138154;-58
2023/12/02 02:27:45;;;;;;;28.60;19.70;;;;;;;2.38;68.40;97744.40;234326;211;148131;-62
2023/12/02 02:32:48;;;;;;;28.60;18.20;;;;;;;2.35;68.26;97731.77;234325;215;139742;-62
2023/12/02 02:37:52;;;;;;;28.60;19.00;;;;;;;2.29;68.34;97736.23;234403;215;137808;-62
2023/12/02 02:42:56;;;;;;;28.00;19.20;;;;;;;2.25;68.25;97735.27;234327;215;147723;-61
2023/12/02 02:47:59;;;;;;;27.90;18.70;;;;;;;2.21;68.44;97716.02;234092;215;139461;-60
2023/12/02 02:53:02;;;;;;;27.10;17.30;;;;;;;2.19;68.56;97701.93;234418;215;137310;-63
2023/12/02 02:58:06;;;;;;;28.00;16.90;;;;;;;2.17;68.42;97711.67;234084;215;147300;-60
2023/12/02 03:03:09;;;;;;;25.60;16.30;;;;;;;2.14;68.55;97695.90;234328;215;139612;-61
2023/12/02 03:08:12;;;;;;;26.20;17.00;;;;;;;2.12;68.52;97713.45;234265;215;137742;-61
2023/12/02 03:13:15;;;;;;;24.70;16.50;;;;;;;2.12;68.49;97695.44;234434;215;147409;-60
2023/12/02 03:18:18;;;;;;;23.00;15.30;;;;;;;2.11;68.49;97710.92;234291;212;138932;-63
2023/12/02 03:23:22;;;;;;;25.20;15.50;;;;;;;2.08;68.37;97737.66;234170;215;136564;-64
2023/12/02 03:28:25;;;;;;;21.50;13.50;;;;;;;2.11;68.43;97730.00;234295;215;147276;-62
2023/12/02 03:33:28;;;;;;;21.60;13.20;;;;;;;2.20;68.47;97704.17;234200;215;139765;-61
2023/12/02 03:38:31;;;;;;;20.60;13.00;;;;;;;2.27;68.12;97700.85;234304;215;136870;-61
2023/12/02 03:43:35;;;;;;;19.10;11.90;;;;;;;2.27;67.86;97717.83;234333;213;147237;-62
2023/12/02 03:48:58;;;;;;;18.60;11.50;;;;;;;2.28;67.90;97713.05;234363;215;138809;-61
2023/12/02 03:54:01;;;;;;;256.30;184.80;;;;;;;2.36;68.83;97736.79;234244;215;137558;-57
2023/12/02 03:59:04;;;;;;;193.40;131.40;;;;;;;2.45;68.36;97744.06;234200;212;147618;-58
2023/12/02 04:04:08;;;;;;;27.50;15.90;;;;;;;2.53;69.23;97739.65;234226;215;138896;-59
2023/12/02 04:09:11;;;;;;;21.00;12.30;;;;;;;2.56;67.88;97723.54;234347;215;137597;-60
2023/12/02 04:14:14;;;;;;;18.60;10.80;;;;;;;2.47;67.57;97721.38;234353;215;147553;-62
2023/12/02 04:19:18;;;;;;;17.80;10.80;;;;;;;2.34;67.54;97710.45;234318;215;138732;-60
2023/12/02 04:24:21;;;;;;;16.40;10.60;;;;;;;2.25;67.80;97699.54;234393;212;139326;-58
2023/12/02 04:29:24;;;;;;;15.90;10.50;;;;;;;2.19;68.01;97699.35;234486;215;148192;-61
2023/12/02 04:34:27;;;;;;;13.60;9.10;;;;;;;2.12;68.16;97700.20;234269;213;138912;-59
2023/12/02 04:39:30;;;;;;;14.50;9.10;;;;;;;2.06;68.08;97710.98;234146;215;137606;-62
2023/12/02 04:44:33;;;;;;;246.00;172.20;;;;;;;2.03;68.52;97715.85;233986;215;147530;-63
2023/12/02 04:49:37;;;;;;;24.00;15.10;;;;;;;2.16;68.86;97716.09;234293;215;140779;-61
2023/12/02 04:54:40;;;;;;;13.20;9.30;;;;;;;2.10;68.17;97695.06;234307;215;137960;-59
2023/12/02 04:59:43;;;;;;;12.10;8.20;;;;;;;1.98;68.30;97688.45;234362;215;148134;-59
2023/12/02 05:04:47;;;;;;;12.80;8.40;;;;;;;1.96;68.46;97699.25;234323;213;139666;-62
2023/12/02 05:09:50;;;;;;;11.80;7.10;;;;;;;1.91;68.29;97697.92;234297;215;137528;-62
2023/12/02 05:14:53;;;;;;;10.70;6.40;;;;;;;1.87;68.41;97688.48;234381;215;148520;-62
2023/12/02 05:19:57;;;;;;;11.20;5.90;;;;;;;1.88;68.36;97691.23;234180;208;139398;-62
2023/12/02 05:25:00;;;;;;;10.60;5.60;;;;;;;1.92;68.31;97681.24;234261;213;138445;-61
2023/12/02 05:30:04;;;;;;;9.20;5.10;;;;;;;1.93;68.14;97688.19;234387;215;147577;-62
2023/12/02 05:35:10;;;;;;;6.20;4.10;;;;;;;1.89;68.02;97692.08;234135;213;139874;-60
2023/12/02 05:40:13;;;;;;;;;;;;;;;1.86;68.06;97689.38;234330;213;136585;-59
2023/12/02 05:45:17;;;;;;;5.60;3.60;;;;;;;1.81;68.02;97686.83;234500;215;147479;-60
2023/12/02 05:50:20;;;;;;;6.70;3.90;;;;;;;1.75;68.15;97682.60;234237;215;138655;-60
2023/12/02 05:55:23;;;;;;;6.00;3.70;;;;;;;1.70;68.24;97686.50;234332;215;136354;-61
2023/12/02 06:00:26;;;;;;;5.60;3.30;;;;;;;1.65;68.15;97678.03;234324;215;147631;-60
2023/12/02 06:05:29;;;;;;;4.40;3.10;;;;;;;1.57;68.40;97681.88;234396;215;138735;-62
2023/12/02 06:10:33;;;;;;;6.90;3.60;;;;;;;1.57;68.61;97686.98;234329;215;137387;-57
2023/12/02 06:15:38;;;;;;;5.30;3.90;;;;;;;1.58;68.53;97665.73;234315;216;147740;-60
2023/12/02 06:20:42;;;;;;;;;;;;;;;1.57;68.65;97666.48;234305;215;139270;-62
2023/12/02 06:25:45;;;;;;;10.00;5.10;;;;;;;1.53;68.62;97668.95;234438;213;131710;-65
2023/12/02 06:30:49;;;;;;;6.50;4.80;;;;;;;1.51;68.85;97655.27;234321;213;148504;-64
2023/12/02 06:35:52;;;;;;;7.20;4.40;;;;;;;1.47;68.90;97646.70;234273;215;139498;-62
2023/12/02 06:40:55;;;;;;;7.10;5.00;;;;;;;1.45;68.96;97640.35;234445;215;137772;-64
2023/12/02 06:45:58;;;;;;;7.50;4.80;;;;;;;1.45;69.06;97640.87;234271;213;147728;-64
2023/12/02 06:51:02;;;;;;;9.60;5.30;;;;;;;1.49;69.00;97642.57;234215;208;138954;-62
2023/12/02 06:56:16;;;;;;;9.10;5.00;;;;;;;1.52;68.75;97646.64;234345;215;136612;-62
2023/12/02 07:01:30;;;;;;;8.40;4.80;;;;;;;1.59;68.67;97637.56;234329;213;147476;-64
2023/12/02 07:06:33;;;;;;;9.50;5.30;;;;;;;1.65;68.34;97634.98;234312;215;138814;-63
2023/12/02 07:11:36;;;;;;;7.50;4.30;;;;;;;1.67;68.18;97650.48;234473;215;136318;-63
2023/12/02 07:16:39;;;;;;;9.10;5.30;;;;;;;1.68;67.93;97660.05;234399;215;147669;-65
2023/12/02 07:21:43;;;;;;;11.00;5.30;;;;;;;1.68;67.72;97649.19;234318;215;138806;-66
2023/12/02 07:26:46;;;;;;;9.20;6.20;;;;;;;1.65;67.83;97647.05;234195;214;137000;-65
2023/12/02 07:31:49;;;;;;;10.60;6.30;;;;;;;1.62;67.82;97650.68;234278;212;148698;-66
2023/12/02 07:36:52;;;;;;;11.60;6.80;;;;;;;1.60;67.90;97636.11;234273;215;140307;-63
2023/12/02 07:41:55;;;;;;;10.20;6.90;;;;;;;1.58;68.13;97640.77;234265;215;136870;-63
2023/12/02 07:46:59;;;;;;;12.20;7.00;;;;;;;1.53;68.14;97643.43;234363;215;147631;-63
2023/12/02 07:52:02;;;;;;;11.80;7.20;;;;;;;1.53;68.51;97665.48;234118;212;138596;-59
2023/12/02 07:57:06;;;;;;;15.70;7.70;;;;;;;1.54;68.48;97678.52;234274;215;136328;-63
2023/12/02 08:02:09;;;;;;;12.70;7.80;;;;;;;1.56;68.48;97688.91;234060;215;149018;-63
2023/12/02 08:07:12;;;;;;;14.50;8.20;;;;;;;1.60;68.42;97716.34;234313;215;139288;-64
2023/12/02 08:12:15;;;;;;;14.00;8.40;;;;;;;1.61;68.48;97710.35;234273;213;136250;-63
2023/12/02 08:17:18;;;;;;;17.20;9.40;;;;;;;1.61;68.67;97698.45;234452;213;147544;-68
2023/12/02 08:22:24;;;;;;;14.70;8.10;;;;;;;1.66;68.50;97685.14;234277;212;138868;-67
2023/12/02 08:27:27;;;;;;;14.50;8.50;;;;;;;1.67;68.62;97690.34;234284;213;137600;-68
2023/12/02 08:32:31;;;;;;;14.90;8.20;;;;;;;1.73;68.59;97680.44;234237;213;148210;-68
2023/12/02 08:37:34;;;;;;;13.70;8.90;;;;;;;1.81;68.52;97690.18;234201;213;138765;-63
2023/12/02 08:42:38;;;;;;;15.10;9.30;;;;;;;1.85;68.59;97690.30;234313;215;137044;-65
2023/12/02 08:47:41;;;;;;;15.10;8.60;;;;;;;1.90;68.48;97676.41;234456;215;147406;-64
2023/12/02 08:52:44;;;;;;;18.50;10.00;;;;;;;1.96;68.30;97661.62;234362;211;138758;-67
2023/12/02 08:57:47;;;;;;;15.90;9.60;;;;;;;1.95;68.11;97653.13;234237;214;137237;-63
2023/12/02 09:02:51;;;;;;;17.70;9.50;;;;;;;1.93;68.28;97660.73;234295;215;150347;-64
2023/12/02 09:07:54;;;;;;;15.40;9.60;;;;;;;1.90;68.04;97668.58;234264;209;139436;-60
2023/12/02 09:12:57;;;;;;;19.80;10.50;;;;;;;1.91;68.14;97669.77;234378;212;137125;-64
2023/12/02 09:18:09;;;;;;;18.10;10.00;;;;;;;1.91;68.06;97669.23;234305;215;147714;-63
2023/12/02 09:23:15;;;;;;;17.90;10.60;;;;;;;1.92;68.01;97682.64;234461;213;140785;-63
2023/12/02 09:28:23;;;;;;;;;;;;;;;1.93;67.99;97679.27;233807;213;138250;-62
2023/12/02 09:33:27;;;;;;;18.40;11.20;;;;;;;1.93;67.87;97663.73;234323;215;147800;-66
2023/12/02 09:38:32;;;;;;;21.00;12.40;;;;;;;1.92;67.84;97662.39;234250;213;139306;-68
2023/12/02 09:44:05;;;;;;;17.90;10.70;;;;;;;1.92;67.71;97656.42;234395;215;136458;-65
2023/12/02 09:49:38;;;;;;;373.70;232.60;;;;;;;2.04;68.43;97655.27;234334;215;147482;-62
2023/12/02 09:54:50;;;;;;;18.50;11.70;;;;;;;2.26;67.71;97655.91;234253;213;141116;-60
2023/12/02 10:00:19;;;;;;;21.80;13.10;;;;;;;2.20;67.03;97660.59;234355;213;139020;-65
2023/12/02 10:05:23;;;;;;;19.50;12.50;;;;;;;2.19;66.88;97655.41;234339;212;147600;-63
2023/12/02 10:10:39;;;;;;;20.20;13.30;;;;;;;2.16;66.88;97648.26;234258;212;138800;-62
2023/12/02 10:15:46;;;;;;;23.60;13.50;;;;;;;2.15;66.89;97636.70;234238;208;136552;-64
2023/12/02 10:21:00;;;;;;;23.00;13.90;;;;;;;2.12;66.91;97627.77;234100;212;147639;-63
2023/12/02 10:26:08;;;;;;;23.20;13.70;;;;;;;2.07;67.08;97627.13;234261;208;138959;-63
2023/12/02 10:31:21;;;;;;;18.80;11.60;;;;;;;2.05;67.07;97602.77;234274;208;136875;-58
2023/12/02 10:36:27;;;;;;;217.80;108.40;;;;;;;2.02;67.79;97587.70;234256;213;147259;-63
2023/12/02 10:41:55;;;;;;;30.50;17.10;;;;;;;2.13;67.81;97593.29;234309;214;138755;-61
2023/12/02 10:47:00;;;;;;;21.60;13.20;;;;;;;2.11;67.50;97597.21;234394;213;137246;-60
2023/12/02 10:52:04;;;;;;;22.00;13.50;;;;;;;2.09;67.56;97600.08;234119;215;148222;-61
2023/12/02 10:57:12;;;;;;;24.10;13.70;;;;;;;2.09;67.65;97604.14;234256;208;139611;-60
2023/12/02 11:02:35;;;;;;;22.10;12.80;;;;;;;2.09;67.52;97599.73;234221;214;138498;-60
2023/12/02 11:07:46;;;;;;;19.20;12.70;;;;;;;2.08;67.37;97597.00;234283;208;147468;-60
2023/12/02 11:12:52;;;;;;;21.70;12.50;;;;;;;2.08;67.51;97600.17;234236;213;138881;-60
2023/12/02 11:18:14;;;;;;;22.30;13.00;;;;;;;2.07;67.45;97611.59;234386;208;137897;-63
2023/12/02 11:23:31;;;;;;;21.80;13.20;;;;;;;2.04;67.60;97612.60;234352;212;148461;-62
2023/12/02 11:28:59;;;;;;;23.20;13.10;;;;;;;2.04;67.66;97597.04;234181;213;139047;-62
2023/12/02 11:34:14;;;;;;;20.20;13.30;;;;;;;2.07;67.64;97591.98;234277;215;136852;-63
2023/12/02 11:39:31;;;;;;;20.40;12.00;;;;;;;2.07;67.57;97594.23;234308;208;147552;-62
2023/12/02 11:44:46;;;;;;;18.30;12.10;;;;;;;2.09;67.66;97592.06;234171;208;140269;-62
2023/12/02 11:50:10;;;;;;;19.40;11.30;;;;;;;2.11;67.68;97591.92;234211;212;136613;-62
2023/12/02 11:55:25;;;;;;;16.20;11.00;;;;;;;2.10;67.71;97596.73;234318;213;149899;-62
2023/12/02 12:00:43;;;;;;;22.30;12.40;;;;;;;2.08;67.84;97598.41;234248;213;139231;-61
2023/12/02 12:06:07;;;;;;;18.30;11.30;;;;;;;2.10;68.07;97584.84;234178;213;136552;-58
2023/12/02 12:11:16;;;;;;;22.80;13.10;;;;;;;2.16;68.09;97570.89;234454;215;148351;-57
2023/12/02 12:16:19;;;;;;;330.80;204.40;;;;;;;2.27;68.48;97569.45;234104;215;138620;-56
2023/12/02 12:21:34;;;;;;;23.50;13.40;;;;;;;2.50;68.91;97581.49;234273;215;137709;-58
2023/12/02 12:26:37;;;;;;;19.80;12.10;;;;;;;2.54;67.75;97583.60;234268;215;147942;-57
2023/12/02 12:31:44;;;;;;;20.90;12.90;;;;;;;2.50;67.64;97584.14;234288;215;138691;-56
2023/12/02 12:36:47;;;;;;;22.50;11.90;;;;;;;2.48;67.85;97596.52;234307;215;138935;-56
2023/12/02 12:41:51;;;;;;;18.40;11.80;;;;;;;2.44;67.87;97595.14;234528;215;147935;-59
2023/12/02 12:46:55;;;;;;;22.30;12.30;;;;;;;2.40;67.85;97591.85;234265;215;140920;-58
2023/12/02 12:52:02;;;;;;;19.60;11.30;;;;;;;2.38;67.99;97591.60;234264;215;136813;-59
2023/12/02 12:57:11;;;;;;;15.50;9.70;;;;;;;2.40;68.01;97598.33;234366;215;148384;-64
2023/12/02 13:02:23;;;;;;;16.80;10.20;;;;;;;2.38;67.95;97593.89;234313;215;141382;-56
2023/12/02 13:07:48;;;;;;;17.80;10.00;;;;;;;2.34;68.09;97588.51;233766;215;137068;-56
2023/12/02 13:12:57;;;;;;;17.10;9.60;;;;;;;2.30;68.21;97579.25;234198;215;147821;-55
2023/12/02 13:18:02;;;;;;;17.80;10.40;;;;;;;2.28;68.35;97568.67;234287;215;139653;-63
2023/12/02 13:23:07;;;;;;;15.00;9.40;;;;;;;2.27;68.40;97568.02;234283;215;136463;-60
2023/12/02 13:28:20;;;;;;;16.50;9.70;;;;;;;2.28;68.36;97566.95;234111;215;148164;-58
2023/12/02 13:33:45;;;;;;;14.70;9.30;;;;;;;2.27;68.54;97574.18;234256;215;139423;-55
2023/12/02 13:39:14;;;;;;;16.90;10.10;;;;;;;2.22;68.77;97570.39;234321;215;136393;-58
2023/12/02 13:44:21;;;;;;;16.30;9.40;;;;;;;2.19;68.85;97568.63;234289;215;147519;-58
2023/12/02 13:49:31;;;;;;;18.10;11.00;;;;;;;2.16;69.11;97572.48;234240;215;138931;-59
2023/12/02 13:55:07;;;;;;;15.20;10.00;;;;;;;3.98;87.58;97560.43;234198;216;138667;-59
2023/12/02 14:00:19;;;;;;;18.10;11.40;;;;;;;4.51;68.83;97554.08;234238;215;147280;-56
2023/12/02 14:05:50;;;;;;;17.40;11.20;;;;;;;3.92;66.95;97587.10;234425;215;138887;-58
2023/12/02 14:10:54;;;;;;;19.00;11.30;;;;;;;3.48;66.81;97592.59;234318;215;136387;-57
2023/12/02 14:16:21;;;;;;;240.90;136.40;;;;;;;3.21;67.54;97599.03;234339;215;148034;-58
2023/12/02 14:21:29;;;;;;;19.60;12.50;;;;;;;3.10;67.68;97597.00;234401;215;139777;-58
2023/12/02 14:26:41;;;;;;;19.00;11.60;;;;;;;2.88;67.61;97601.58;234293;215;137311;-57
2023/12/02 14:32:08;;;;;;;18.50;11.50;;;;;;;2.67;67.70;97607.40;234240;215;146563;-58
2023/12/02 14:37:22;;;;;;;20.60;11.80;;;;;;;2.50;68.22;97613.92;234291;215;139496;-56
2023/12/02 14:42:41;;;;;;;18.70;11.90;;;;;;;2.34;68.58;97606.48;234220;215;136571;-58
2023/12/02 14:47:44;;;;;;;18.80;10.90;;;;;;;2.16;68.81;97574.02;234410;215;148559;-58
2023/12/02 14:52:49;;;;;;;21.00;11.60;;;;;;;2.02;69.51;97534.55;234194;215;138727;-57
2023/12/02 14:58:20;;;;;;;20.40;13.10;;;;;;;1.95;69.68;97530.86;234206;215;136645;-54
2023/12/02 15:03:29;;;;;;;21.40;13.10;;;;;;;1.91;69.63;97533.36;234299;213;147657;-54
2023/12/02 15:08:40;;;;;;;24.00;13.20;;;;;;;1.86;69.82;97547.05;234286;215;142600;-55
2023/12/02 15:13:45;;;;;;;23.60;13.60;;;;;;;1.82;69.85;97514.40;234011;215;137284;-55
2023/12/02 15:18:50;;;;;;;21.90;13.70;;;;;;;1.81;70.03;97530.38;234279;215;147389;-56
2023/12/02 15:23:54;;;;;;;;;;;;;;;1.87;70.03;97539.83;234521;215;140138;-55
2023/12/02 15:29:02;;;;;;;28.20;15.30;;;;;;;1.95;69.72;97541.39;234464;215;132320;-54
2023/12/02 15:34:06;;;;;;;22.80;14.70;;;;;;;1.98;69.44;97558.36;234270;215;148928;-56
2023/12/02 15:39:09;;;;;;;23.60;14.30;;;;;;;1.98;69.20;97574.28;234202;215;138831;-56
2023/12/02 15:44:13;;;;;;;23.90;14.70;;;;;;;1.95;69.32;97578.25;234191;215;137232;-56
2023/12/02 15:49:23;;;;;;;27.20;15.40;;;;;;;1.92;69.28;97593.09;234277;215;147222;-55
2023/12/02 15:54:28;;;;;;;28.30;16.40;;;;;;;1.87;69.19;97611.89;233970;215;139672;-57
2023/12/02 15:59:32;;;;;;;25.80;16.20;;;;;;;1.85;69.28;97622.15;234358;215;136754;-59
2023/12/02 16:04:36;;;;;;;25.10;16.40;;;;;;;1.82;69.38;97631.37;234353;215;147331;-55
2023/12/02 16:09:46;;;;;;;28.50;16.90;;;;;;;1.80;69.51;97622.55;234269;215;138756;-57
2023/12/02 16:14:52;;;;;;;29.50;17.00;;;;;;;1.78;69.56;97623.16;234372;215;136632;-55
2023/12/02 16:19:55;;;;;;;29.70;17.00;;;;;;;1.77;69.60;97589.86;234294;215;148040;-56
2023/12/02 16:24:59;;;;;;;27.20;16.90;;;;;;;1.69;69.64;97580.27;234218;215;139423;-57
2023/12/02 16:30:03;;;;;;;30.10;18.30;;;;;;;1.65;69.82;97585.02;234447;215;136762;-56
2023/12/02 16:35:07;;;;;;;30.00;17.80;;;;;;;1.63;70.09;97609.40;234292;215;148145;-56
2023/12/02 16:40:12;;;;;;;33.90;18.10;;;;;;;1.64;69.98;97613.19;234230;215;139388;-55
2023/12/02 16:45:20;;;;;;;29.70;17.50;;;;;;;1.63;69.82;97617.95;234247;215;137503;-54
2023/12/02 16:50:29;;;;;;;28.80;16.40;;;;;;;1.63;69.64;97593.68;234288;215;149937;-56
2023/12/02 16:55:36;;;;;;;33.80;17.80;;;;;;;1.69;69.54;97597.04;234119;215;140290;-54
2023/12/02 17:00:43;;;;;;;31.70;17.80;;;;;;;1.75;69.25;97548.70;234290;215;137008;-55
2023/12/02 17:05:58;;;;;;;28.60;15.20;;;;;;;1.76;69.06;97498.63;234373;215;147625;-55
2023/12/02 17:11:29;;;;;;;27.20;15.60;;;;;;;1.73;68.94;97558.58;234282;215;139457;-55
2023/12/02 17:16:32;;;;;;;24.70;14.50;;;;;;;1.65;68.82;97622.73;234293;215;137255;-55
2023/12/02 17:21:36;;;;;;;64.80;38.30;;;;;;;1.64;69.11;97678.58;234194;215;147551;-55
2023/12/02 17:26:40;;;;;;;25.70;16.00;;;;;;;1.67;69.19;97684.94;234337;215;138775;-56
2023/12/02 17:31:43;;;;;;;447.00;279.10;;;;;;;1.71;69.51;97677.91;234282;215;137045;-56
2023/12/02 17:36:47;;;;;;;35.40;21.40;;;;;;;1.82;69.59;97659.51;234278;215;148688;-54
2023/12/02 17:41:51;;;;;;;27.50;16.20;;;;;;;1.82;69.23;97593.26;234342;215;138864;-55
2023/12/02 17:46:54;;;;;;;21.90;14.50;;;;;;;1.74;69.04;97552.42;234174;215;137119;-58
2023/12/02 17:51:58;;;;;;;21.30;13.80;;;;;;;1.61;69.02;97545.56;234237;215;147529;-56
2023/12/02 17:57:01;;;;;;;25.40;13.80;;;;;;;1.48;69.36;97590.41;234226;215;139463;-56
2023/12/02 18:02:04;;;;;;;24.70;13.80;;;;;;;1.45;69.43;97615.90;234364;215;140789;-54
2023/12/02 18:07:08;;;;;;;27.00;15.10;;;;;;;1.55;69.56;97678.51;234293;215;148239;-55
2023/12/02 18:12:12;;;;;;;25.30;15.90;;;;;;;1.64;69.67;97717.90;234236;215;138873;-56
2023/12/02 18:17:17;;;;;;;26.20;15.70;;;;;;;1.73;69.49;97752.09;234364;215;137247;-56
2023/12/02 18:22:20;;;;;;;27.30;16.10;;;;;;;1.80;69.33;97730.40;234187;215;147405;-56
2023/12/02 18:27:23;;;;;;;30.00;17.30;;;;;;;1.83;69.21;97723.83;234230;215;138831;-58
2023/12/02 18:32:26;;;;;;;28.00;16.30;;;;;;;1.80;69.00;97726.25;234298;215;137701;-56
2023/12/02 18:37:30;;;;;;;27.00;16.80;;;;;;;1.76;68.94;97729.77;234280;215;148100;-57
2023/12/02 18:42:33;;;;;;;28.60;17.00;;;;;;;1.70;69.13;97688.98;234276;215;139472;-55
2023/12/02 18:47:36;;;;;;;27.50;16.70;;;;;;;1.68;69.15;97724.89;234425;215;137531;-57
2023/12/02 18:52:39;;;;;;;30.80;17.50;;;;;;;1.67;69.13;97765.66;234205;215;148321;-57
2023/12/02 18:57:43;;;;;;;32.50;18.40;;;;;;;1.66;69.26;97798.39;234294;215;141152;-58
2023/12/02 19:02:46;;;;;;;29.30;17.70;;;;;;;1.63;69.22;97810.77;234338;213;137877;-55
2023/12/02 19:07:49;;;;;;;35.30;20.90;;;;;;;1.58;68.98;97826.38;234241;214;147248;-55
2023/12/02 19:12:53;;;;;;;34.00;20.40;;;;;;;1.54;69.07;97834.98;234111;216;138902;-57
2023/12/02 19:17:56;;;;;;;157.10;106.30;;;;;;;1.56;69.10;97828.91;234308;215;137424;-54
2023/12/02 19:22:59;;;;;;;59.00;33.20;;;;;;;1.81;70.89;97837.58;234193;215;147727;-56
2023/12/02 19:28:03;;;;;;;34.60;19.60;;;;;;;1.93;68.67;97849.27;234225;215;138809;-55
2023/12/02 19:33:06;;;;;;;31.10;20.20;;;;;;;1.94;68.28;97849.58;234182;215;153856;-57
2023/12/02 19:38:10;;;;;;;30.70;19.20;;;;;;;1.92;68.28;97854.39;234194;215;147742;-57
2023/12/02 19:43:13;;;;;;;32.20;18.20;;;;;;;1.84;68.13;97872.41;234107;215;139917;-56
2023/12/02 19:48:17;;;;;;;28.90;17.50;;;;;;;1.78;68.22;97891.02;234091;213;137584;-56
2023/12/02 19:53:21;;;;;;;28.70;18.00;;;;;;;1.77;68.28;97908.39;234274;215;148025;-55
2023/12/02 19:58:24;;;;;;;27.10;16.30;;;;;;;1.63;68.58;97922.63;234146;215;139160;-55
2023/12/02 20:03:28;;;;;;;27.20;16.40;;;;;;;1.46;69.43;97929.53;234297;215;136634;-57
2023/12/02 20:08:32;;;;;;;29.40;16.10;;;;;;;1.33;69.28;97952.42;234198;215;147930;-55
2023/12/02 20:13:35;;;;;;;29.00;17.00;;;;;;;1.25;69.40;97966.23;234273;215;139291;-55
2023/12/02 20:18:38;;;;;;;30.90;16.70;;;;;;;1.09;69.80;97970.21;234278;215;137021;-54
2023/12/02 20:23:42;;;;;;;32.80;16.70;;;;;;;1.04;70.05;97977.05;234309;215;147919;-56
2023/12/02 20:28:45;;;;;;;69.80;39.40;;;;;;;1.17;71.74;97985.79;234254;215;138768;-55
2023/12/02 20:33:49;;;;;;;35.30;17.90;;;;;;;1.50;70.51;97993.46;234251;215;138500;-56
2023/12/02 20:38:52;;;;;;;37.40;19.10;;;;;;;1.43;69.07;98002.86;234223;215;147310;-57
2023/12/02 20:43:56;;;;;;;38.90;19.30;;;;;;;1.19;69.29;98010.68;234243;215;139732;-57
2023/12/02 20:48:59;;;;;;;35.40;18.30;;;;;;;1.04;69.86;98014.76;234263;215;138186;-56
2023/12/02 20:54:02;;;;;;;35.90;19.40;;;;;;;0.96;69.84;98032.38;234410;215;147382;-57
2023/12/02 20:59:06;;;;;;;38.50;19.00;;;;;;;0.91;70.06;98045.14;234145;215;138765;-58
2023/12/02 21:04:09;;;;;;;39.10;18.50;;;;;;;0.90;70.20;98058.45;234165;215;138427;-57
2023/12/02 21:09:13;;;;;;;109.20;66.80;;;;;;;1.00;73.14;98074.47;234209;215;149174;-59
2023/12/02 21:14:16;;;;;;;35.20;17.80;;;;;;;1.36;72.14;98082.11;234404;215;138968;-58
2023/12/02 21:19:19;;;;;;;30.60;16.70;;;;;;;1.35;70.30;98095.30;233890;215;138595;-60
2023/12/02 21:24:23;;;;;;;28.70;15.50;;;;;;;1.35;70.04;98113.09;234260;215;147454;-58
2023/12/02 21:29:26;;;;;;;32.20;16.80;;;;;;;1.35;69.77;98126.39;234313;215;138635;-58
2023/12/02 21:34:29;;;;;;;31.70;16.20;;;;;;;1.34;69.77;98145.66;234121;215;136817;-59
2023/12/02 21:39:34;;;;;;;33.60;16.50;;;;;;;1.26;69.64;98163.41;234258;214;147420;-58
2023/12/02 21:44:38;;;;;;;30.30;15.90;;;;;;;1.22;69.77;98181.08;234174;215;139432;-60
2023/12/02 21:49:42;;;;;;;32.30;16.70;;;;;;;1.19;69.91;98195.86;234282;215;136901;-59
2023/12/02 21:54:48;;;;;;;34.00;16.60;;;;;;;1.16;70.05;98199.27;234102;215;147578;-58
2023/12/02 21:59:52;;;;;;;30.10;15.60;;;;;;;1.13;69.98;98206.88;234384;214;139360;-58
2023/12/02 22:04:55;;;;;;;30.50;15.80;;;;;;;1.10;70.30;98213.30;234276;215;138310;-57
2023/12/02 22:10:01;;;;;;;26.70;14.80;;;;;;;1.08;70.50;98217.73;234291;215;147496;-58
2023/12/02 22:15:29;;;;;;;30.90;15.20;;;;;;;1.05;70.31;98224.48;234190;215;138768;-58
2023/12/02 22:20:33;;;;;;;30.10;15.00;;;;;;;1.03;70.51;98236.94;234010;215;136678;-59
2023/12/02 22:25:38;;;;;;;31.50;14.60;;;;;;;1.10;70.50;98244.05;234212;215;147503;-59
2023/12/02 22:30:48;;;;;;;30.30;15.30;;;;;;;1.12;70.28;98247.62;233593;215;138656;-60
2023/12/02 22:35:56;;;;;;;27.50;14.50;;;;;;;1.16;70.12;98247.65;234203;215;137271;-60
2023/12/02 22:40:59;;;;;;;28.20;14.40;;;;;;;1.18;70.01;98253.86;234131;215;147807;-58
2023/12/02 22:46:03;;;;;;;26.50;14.40;;;;;;;1.21;69.63;98268.80;234277;215;139592;-60
2023/12/02 22:51:09;;;;;;;31.30;15.30;;;;;;;1.21;69.71;98282.61;234309;215;137955;-59
2023/12/02 22:56:12;;;;;;;29.40;15.90;;;;;;;1.23;69.45;98294.05;234206;215;148295;-59
2023/12/02 23:01:18;;;;;;;34.70;17.30;;;;;;;1.19;69.36;98296.30;234200;215;137937;-58
2023/12/02 23:06:27;;;;;;;33.50;17.50;;;;;;;1.10;69.45;98300.99;234190;215;136602;-60
2023/12/02 23:11:36;;;;;;;31.20;16.40;;;;;;;1.08;69.26;98319.03;234351;215;147576;-59
2023/12/02 23:16:40;;;;;;;32.80;17.60;;;;;;;1.05;69.39;98333.10;234175;215;139063;-59
2023/12/02 23:21:44;;;;;;;31.90;16.50;;;;;;;1.04;69.07;98338.56;234275;215;138079;-60
2023/12/02 23:26:47;;;;;;;32.90;17.10;;;;;;;1.00;68.89;98346.92;234339;215;147367;-60
2023/12/02 23:31:50;;;;;;;30.40;15.50;;;;;;;0.91;68.92;98342.86;234386;215;138801;-60